sensor_id;sensor_type;location;lat;lon;timestamp;P1;durP1;ratioP1;P2;durP2;ratioP2
3052;SDS011;1536;51.098;6.414;2024-03-08T00:01:00;18.95;;;16.85;;
3052;SDS011;1536;51.098;6.414;2024-03-08T00:03:27;19.00;;;16.75;;
3052;SDS011;1536;51.098;6.414;2024-03-08T00:05:54;21.52;;;17.20;;
3052;SDS011;1536;51.098;6.414;2024-03-08T00:08:21;24.95;;;18.08;;
3052;SDS011;1536;51.098;6.414;2024-03-08T00:10:49;24.20;;;18.15;;
3052;SDS011;1536;51.098;6.414;2024-03-08T00:13:16;22.05;;;17.20;;
3052;SDS011;1536;51.098;6.414;2024-03-08T00:15:43;22.75;;;16.70;;
3052;SDS011;1536;51.098;6.414;2024-03-08T00:18:10;21.17;;;16.40;;
3052;SDS011;1536;51.098;6.414;2024-03-08T00:20:37;24.73;;;18.25;;
3052;SDS011;1536;51.098;6.414;2024-03-08T00:23:04;18.85;;;16.85;;
3052;SDS011;1536;51.098;6.414;2024-03-08T00:25:31;22.17;;;17.35;;
3052;SDS011;1536;51.098;6.414;2024-03-08T00:28:00;19.58;;;17.35;;
3052;SDS011;1536;51.098;6.414;2024-03-08T00:30:27;21.77;;;17.50;;
3052;SDS011;1536;51.098;6.414;2024-03-08T00:32:54;19.50;;;16.80;;
3052;SDS011;1536;51.098;6.414;2024-03-08T00:35:21;23.15;;;18.58;;
3052;SDS011;1536;51.098;6.414;2024-03-08T00:37:47;21.52;;;18.10;;
3052;SDS011;1536;51.098;6.414;2024-03-08T00:40:15;25.95;;;17.92;;
3052;SDS011;1536;51.098;6.414;2024-03-08T00:42:42;21.35;;;16.83;;
3052;SDS011;1536;51.098;6.414;2024-03-08T00:45:11;22.52;;;16.15;;
3052;SDS011;1536;51.098;6.414;2024-03-08T00:47:38;19.80;;;17.33;;
3052;SDS011;1536;51.098;6.414;2024-03-08T00:50:05;25.73;;;17.25;;
3052;SDS011;1536;51.098;6.414;2024-03-08T00:52:33;19.92;;;17.92;;
3052;SDS011;1536;51.098;6.414;2024-03-08T00:55:00;22.85;;;17.05;;
3052;SDS011;1536;51.098;6.414;2024-03-08T00:57:27;19.08;;;16.42;;
3052;SDS011;1536;51.098;6.414;2024-03-08T00:59:54;21.67;;;18.00;;
3052;SDS011;1536;51.098;6.414;2024-03-08T01:02:22;24.45;;;18.52;;
3052;SDS011;1536;51.098;6.414;2024-03-08T01:04:50;22.00;;;17.67;;
3052;SDS011;1536;51.098;6.414;2024-03-08T01:07:18;23.98;;;17.23;;
3052;SDS011;1536;51.098;6.414;2024-03-08T01:09:45;22.55;;;18.38;;
3052;SDS011;1536;51.098;6.414;2024-03-08T01:12:12;27.73;;;20.55;;
3052;SDS011;1536;51.098;6.414;2024-03-08T01:14:39;27.30;;;18.00;;
3052;SDS011;1536;51.098;6.414;2024-03-08T01:17:08;21.05;;;17.48;;
3052;SDS011;1536;51.098;6.414;2024-03-08T01:19:36;22.05;;;18.05;;
3052;SDS011;1536;51.098;6.414;2024-03-08T01:22:03;20.90;;;16.33;;
3052;SDS011;1536;51.098;6.414;2024-03-08T01:24:30;26.70;;;17.70;;
3052;SDS011;1536;51.098;6.414;2024-03-08T01:26:57;22.33;;;17.52;;
3052;SDS011;1536;51.098;6.414;2024-03-08T01:29:24;25.58;;;17.95;;
3052;SDS011;1536;51.098;6.414;2024-03-08T01:31:51;21.15;;;18.23;;
3052;SDS011;1536;51.098;6.414;2024-03-08T01:34:18;20.83;;;18.02;;
3052;SDS011;1536;51.098;6.414;2024-03-08T01:36:47;23.17;;;18.70;;
3052;SDS011;1536;51.098;6.414;2024-03-08T01:39:14;21.58;;;17.83;;
3052;SDS011;1536;51.098;6.414;2024-03-08T01:41:42;22.92;;;18.65;;
3052;SDS011;1536;51.098;6.414;2024-03-08T01:44:09;22.92;;;17.40;;
3052;SDS011;1536;51.098;6.414;2024-03-08T01:46:36;22.77;;;17.55;;
3052;SDS011;1536;51.098;6.414;2024-03-08T01:49:03;20.73;;;17.52;;
3052;SDS011;1536;51.098;6.414;2024-03-08T01:51:30;21.70;;;17.33;;
3052;SDS011;1536;51.098;6.414;2024-03-08T01:53:59;22.00;;;16.85;;
3052;SDS011;1536;51.098;6.414;2024-03-08T01:56:28;27.20;;;18.23;;
3052;SDS011;1536;51.098;6.414;2024-03-08T01:58:56;23.00;;;17.98;;
3052;SDS011;1536;51.098;6.414;2024-03-08T02:01:24;23.90;;;18.55;;
3052;SDS011;1536;51.098;6.414;2024-03-08T02:03:51;27.13;;;19.73;;
3052;SDS011;1536;51.098;6.414;2024-03-08T02:06:18;24.48;;;16.98;;
3052;SDS011;1536;51.098;6.414;2024-03-08T02:08:45;24.15;;;17.73;;
3052;SDS011;1536;51.098;6.414;2024-03-08T02:11:14;20.73;;;18.23;;
3052;SDS011;1536;51.098;6.414;2024-03-08T02:13:41;23.83;;;18.58;;
3052;SDS011;1536;51.098;6.414;2024-03-08T02:16:08;24.10;;;19.25;;
3052;SDS011;1536;51.098;6.414;2024-03-08T02:18:35;24.23;;;18.17;;
3052;SDS011;1536;51.098;6.414;2024-03-08T02:21:06;23.00;;;18.65;;
3052;SDS011;1536;51.098;6.414;2024-03-08T02:23:33;22.67;;;19.02;;
3052;SDS011;1536;51.098;6.414;2024-03-08T02:26:00;23.27;;;17.73;;
3052;SDS011;1536;51.098;6.414;2024-03-08T02:28:29;23.90;;;19.02;;
3052;SDS011;1536;51.098;6.414;2024-03-08T02:30:57;26.88;;;18.90;;
3052;SDS011;1536;51.098;6.414;2024-03-08T02:33:25;26.63;;;18.65;;
3052;SDS011;1536;51.098;6.414;2024-03-08T02:35:52;24.05;;;19.02;;
3052;SDS011;1536;51.098;6.414;2024-03-08T02:38:21;25.35;;;19.10;;
3052;SDS011;1536;51.098;6.414;2024-03-08T02:40:49;27.65;;;18.95;;
3052;SDS011;1536;51.098;6.414;2024-03-08T02:43:17;26.63;;;18.40;;
3052;SDS011;1536;51.098;6.414;2024-03-08T02:45:45;29.67;;;20.52;;
3052;SDS011;1536;51.098;6.414;2024-03-08T02:48:12;24.27;;;19.10;;
3052;SDS011;1536;51.098;6.414;2024-03-08T02:50:41;25.25;;;18.98;;
3052;SDS011;1536;51.098;6.414;2024-03-08T02:53:09;25.58;;;18.15;;
3052;SDS011;1536;51.098;6.414;2024-03-08T02:55:37;22.27;;;17.25;;
3052;SDS011;1536;51.098;6.414;2024-03-08T02:58:06;23.98;;;19.20;;
3052;SDS011;1536;51.098;6.414;2024-03-08T03:00:35;23.55;;;18.30;;
3052;SDS011;1536;51.098;6.414;2024-03-08T03:03:02;25.55;;;18.65;;
3052;SDS011;1536;51.098;6.414;2024-03-08T03:05:29;26.55;;;17.45;;
3052;SDS011;1536;51.098;6.414;2024-03-08T03:07:56;24.33;;;18.00;;
3052;SDS011;1536;51.098;6.414;2024-03-08T03:10:23;25.70;;;18.65;;
3052;SDS011;1536;51.098;6.414;2024-03-08T03:12:52;24.45;;;19.70;;
3052;SDS011;1536;51.098;6.414;2024-03-08T03:15:19;24.38;;;19.20;;
3052;SDS011;1536;51.098;6.414;2024-03-08T03:17:46;21.83;;;19.08;;
3052;SDS011;1536;51.098;6.414;2024-03-08T03:20:13;29.38;;;18.02;;
3052;SDS011;1536;51.098;6.414;2024-03-08T03:22:47;26.58;;;19.65;;
3052;SDS011;1536;51.098;6.414;2024-03-08T03:25:17;21.85;;;18.08;;
3052;SDS011;1536;51.098;6.414;2024-03-08T03:27:48;26.35;;;19.70;;
3052;SDS011;1536;51.098;6.414;2024-03-08T03:30:17;25.20;;;18.33;;
3052;SDS011;1536;51.098;6.414;2024-03-08T03:32:47;27.88;;;18.70;;
3052;SDS011;1536;51.098;6.414;2024-03-08T03:35:13;22.00;;;18.70;;
3052;SDS011;1536;51.098;6.414;2024-03-08T03:37:41;26.05;;;19.48;;
3052;SDS011;1536;51.098;6.414;2024-03-08T03:40:16;24.30;;;18.85;;
3052;SDS011;1536;51.098;6.414;2024-03-08T03:42:44;24.38;;;18.13;;
3052;SDS011;1536;51.098;6.414;2024-03-08T03:45:13;27.48;;;20.35;;
3052;SDS011;1536;51.098;6.414;2024-03-08T03:47:46;20.83;;;17.27;;
3052;SDS011;1536;51.098;6.414;2024-03-08T03:50:13;24.88;;;18.25;;
3052;SDS011;1536;51.098;6.414;2024-03-08T03:52:40;26.90;;;19.63;;
3052;SDS011;1536;51.098;6.414;2024-03-08T03:55:07;28.08;;;17.92;;
3052;SDS011;1536;51.098;6.414;2024-03-08T03:57:36;24.35;;;19.02;;
3052;SDS011;1536;51.098;6.414;2024-03-08T04:00:03;25.83;;;18.27;;
3052;SDS011;1536;51.098;6.414;2024-03-08T04:02:31;23.25;;;19.42;;
3052;SDS011;1536;51.098;6.414;2024-03-08T04:04:59;25.08;;;17.92;;
3052;SDS011;1536;51.098;6.414;2024-03-08T04:07:27;33.63;;;21.08;;
3052;SDS011;1536;51.098;6.414;2024-03-08T04:09:54;27.55;;;21.13;;
3052;SDS011;1536;51.098;6.414;2024-03-08T04:12:21;24.55;;;19.80;;
3052;SDS011;1536;51.098;6.414;2024-03-08T04:14:48;27.38;;;22.52;;
3052;SDS011;1536;51.098;6.414;2024-03-08T04:17:15;26.98;;;19.92;;
3052;SDS011;1536;51.098;6.414;2024-03-08T04:19:43;30.45;;;23.35;;
3052;SDS011;1536;51.098;6.414;2024-03-08T04:22:11;26.23;;;19.95;;
3052;SDS011;1536;51.098;6.414;2024-03-08T04:24:38;29.60;;;21.13;;
3052;SDS011;1536;51.098;6.414;2024-03-08T04:27:05;30.45;;;20.25;;
3052;SDS011;1536;51.098;6.414;2024-03-08T04:29:32;29.52;;;18.98;;
3052;SDS011;1536;51.098;6.414;2024-03-08T04:32:00;26.75;;;19.40;;
3052;SDS011;1536;51.098;6.414;2024-03-08T04:34:28;35.13;;;21.55;;
3052;SDS011;1536;51.098;6.414;2024-03-08T04:36:56;22.45;;;18.77;;
3052;SDS011;1536;51.098;6.414;2024-03-08T04:39:25;25.77;;;20.15;;
3052;SDS011;1536;51.098;6.414;2024-03-08T04:41:53;31.15;;;20.15;;
3052;SDS011;1536;51.098;6.414;2024-03-08T04:44:21;26.30;;;18.88;;
3052;SDS011;1536;51.098;6.414;2024-03-08T04:46:49;25.52;;;19.17;;
3052;SDS011;1536;51.098;6.414;2024-03-08T04:49:16;26.23;;;17.65;;
3052;SDS011;1536;51.098;6.414;2024-03-08T04:51:43;26.20;;;19.65;;
3052;SDS011;1536;51.098;6.414;2024-03-08T04:54:11;30.13;;;19.88;;
3052;SDS011;1536;51.098;6.414;2024-03-08T04:56:39;29.35;;;18.95;;
3052;SDS011;1536;51.098;6.414;2024-03-08T04:59:06;26.05;;;20.02;;
3052;SDS011;1536;51.098;6.414;2024-03-08T05:01:33;25.25;;;18.88;;
3052;SDS011;1536;51.098;6.414;2024-03-08T05:04:01;26.80;;;19.50;;
3052;SDS011;1536;51.098;6.414;2024-03-08T05:06:28;31.73;;;18.98;;
3052;SDS011;1536;51.098;6.414;2024-03-08T05:08:55;28.42;;;18.30;;
3052;SDS011;1536;51.098;6.414;2024-03-08T05:11:22;26.48;;;19.25;;
3052;SDS011;1536;51.098;6.414;2024-03-08T05:13:50;32.38;;;19.20;;
3052;SDS011;1536;51.098;6.414;2024-03-08T05:16:17;26.48;;;17.45;;
3052;SDS011;1536;51.098;6.414;2024-03-08T05:18:46;31.73;;;21.67;;
3052;SDS011;1536;51.098;6.414;2024-03-08T05:21:13;24.45;;;18.40;;
3052;SDS011;1536;51.098;6.414;2024-03-08T05:23:42;23.33;;;17.42;;
3052;SDS011;1536;51.098;6.414;2024-03-08T05:26:09;26.85;;;18.48;;
3052;SDS011;1536;51.098;6.414;2024-03-08T05:28:35;29.52;;;21.33;;
3052;SDS011;1536;51.098;6.414;2024-03-08T05:31:04;27.25;;;18.75;;
3052;SDS011;1536;51.098;6.414;2024-03-08T05:33:31;25.83;;;19.80;;
3052;SDS011;1536;51.098;6.414;2024-03-08T05:35:59;29.63;;;19.40;;
3052;SDS011;1536;51.098;6.414;2024-03-08T05:38:27;29.30;;;17.75;;
3052;SDS011;1536;51.098;6.414;2024-03-08T05:40:54;28.42;;;18.83;;
3052;SDS011;1536;51.098;6.414;2024-03-08T05:43:21;28.30;;;18.45;;
3052;SDS011;1536;51.098;6.414;2024-03-08T05:45:48;25.48;;;19.52;;
3052;SDS011;1536;51.098;6.414;2024-03-08T05:48:16;27.65;;;19.60;;
3052;SDS011;1536;51.098;6.414;2024-03-08T05:50:44;26.20;;;18.20;;
3052;SDS011;1536;51.098;6.414;2024-03-08T05:53:11;25.45;;;17.77;;
3052;SDS011;1536;51.098;6.414;2024-03-08T05:55:38;27.38;;;20.00;;
3052;SDS011;1536;51.098;6.414;2024-03-08T05:58:07;23.73;;;18.23;;
3052;SDS011;1536;51.098;6.414;2024-03-08T06:00:34;24.88;;;19.25;;
3052;SDS011;1536;51.098;6.414;2024-03-08T06:03:01;29.42;;;18.95;;
3052;SDS011;1536;51.098;6.414;2024-03-08T06:05:30;30.80;;;19.83;;
3052;SDS011;1536;51.098;6.414;2024-03-08T06:07:57;24.38;;;18.95;;
3052;SDS011;1536;51.098;6.414;2024-03-08T06:10:24;29.25;;;20.17;;
3052;SDS011;1536;51.098;6.414;2024-03-08T06:12:51;30.10;;;19.98;;
3052;SDS011;1536;51.098;6.414;2024-03-08T06:15:18;28.75;;;17.92;;
3052;SDS011;1536;51.098;6.414;2024-03-08T06:17:46;26.52;;;19.40;;
3052;SDS011;1536;51.098;6.414;2024-03-08T06:20:13;29.20;;;18.98;;
3052;SDS011;1536;51.098;6.414;2024-03-08T06:22:41;26.00;;;19.10;;
3052;SDS011;1536;51.098;6.414;2024-03-08T06:25:09;27.60;;;18.23;;
3052;SDS011;1536;51.098;6.414;2024-03-08T06:27:38;41.75;;;20.52;;
3052;SDS011;1536;51.098;6.414;2024-03-08T06:30:07;28.15;;;17.55;;
3052;SDS011;1536;51.098;6.414;2024-03-08T06:32:35;25.95;;;18.92;;
3052;SDS011;1536;51.098;6.414;2024-03-08T06:35:02;30.88;;;18.75;;
3052;SDS011;1536;51.098;6.414;2024-03-08T06:37:31;26.05;;;19.65;;
3052;SDS011;1536;51.098;6.414;2024-03-08T06:39:59;27.10;;;20.40;;
3052;SDS011;1536;51.098;6.414;2024-03-08T06:42:27;23.58;;;17.45;;
3052;SDS011;1536;51.098;6.414;2024-03-08T06:44:54;29.13;;;18.13;;
3052;SDS011;1536;51.098;6.414;2024-03-08T06:47:28;24.20;;;19.38;;
3052;SDS011;1536;51.098;6.414;2024-03-08T06:49:55;34.83;;;21.15;;
3052;SDS011;1536;51.098;6.414;2024-03-08T06:52:22;31.73;;;20.17;;
3052;SDS011;1536;51.098;6.414;2024-03-08T06:54:49;28.00;;;18.85;;
3052;SDS011;1536;51.098;6.414;2024-03-08T06:57:18;28.42;;;19.52;;
3052;SDS011;1536;51.098;6.414;2024-03-08T06:59:47;25.05;;;19.92;;
3052;SDS011;1536;51.098;6.414;2024-03-08T07:02:14;29.65;;;21.23;;
3052;SDS011;1536;51.098;6.414;2024-03-08T07:04:40;27.55;;;19.92;;
3052;SDS011;1536;51.098;6.414;2024-03-08T07:07:07;30.00;;;22.08;;
3052;SDS011;1536;51.098;6.414;2024-03-08T07:09:34;28.80;;;21.35;;
3052;SDS011;1536;51.098;6.414;2024-03-08T07:12:02;25.00;;;20.42;;
3052;SDS011;1536;51.098;6.414;2024-03-08T07:14:30;25.35;;;19.40;;
3052;SDS011;1536;51.098;6.414;2024-03-08T07:16:57;23.90;;;19.50;;
3052;SDS011;1536;51.098;6.414;2024-03-08T07:19:24;29.23;;;20.17;;
3052;SDS011;1536;51.098;6.414;2024-03-08T07:21:51;26.90;;;19.48;;
3052;SDS011;1536;51.098;6.414;2024-03-08T07:24:17;29.65;;;20.13;;
3052;SDS011;1536;51.098;6.414;2024-03-08T07:27:03;31.67;;;19.73;;
3052;SDS011;1536;51.098;6.414;2024-03-08T07:29:31;29.23;;;19.75;;
3052;SDS011;1536;51.098;6.414;2024-03-08T07:31:58;25.85;;;19.48;;
3052;SDS011;1536;51.098;6.414;2024-03-08T07:34:37;30.73;;;20.80;;
3052;SDS011;1536;51.098;6.414;2024-03-08T07:37:05;27.38;;;19.42;;
3052;SDS011;1536;51.098;6.414;2024-03-08T07:39:36;28.40;;;19.88;;
3052;SDS011;1536;51.098;6.414;2024-03-08T07:42:03;25.05;;;18.60;;
3052;SDS011;1536;51.098;6.414;2024-03-08T07:44:32;33.60;;;20.10;;
3052;SDS011;1536;51.098;6.414;2024-03-08T07:46:59;24.50;;;18.15;;
3052;SDS011;1536;51.098;6.414;2024-03-08T07:49:25;26.70;;;20.10;;
3052;SDS011;1536;51.098;6.414;2024-03-08T07:51:52;26.60;;;18.85;;
3052;SDS011;1536;51.098;6.414;2024-03-08T07:54:19;29.45;;;21.45;;
3052;SDS011;1536;51.098;6.414;2024-03-08T07:56:46;32.03;;;21.38;;
3052;SDS011;1536;51.098;6.414;2024-03-08T07:59:13;26.42;;;19.75;;
3052;SDS011;1536;51.098;6.414;2024-03-08T08:01:41;28.92;;;20.25;;
3052;SDS011;1536;51.098;6.414;2024-03-08T08:04:09;25.45;;;19.70;;
3052;SDS011;1536;51.098;6.414;2024-03-08T08:06:37;25.20;;;19.40;;
3052;SDS011;1536;51.098;6.414;2024-03-08T08:09:06;28.80;;;19.50;;
3052;SDS011;1536;51.098;6.414;2024-03-08T08:11:39;28.40;;;18.23;;
3052;SDS011;1536;51.098;6.414;2024-03-08T08:14:08;30.60;;;19.98;;
3052;SDS011;1536;51.098;6.414;2024-03-08T08:16:35;26.73;;;19.58;;
3052;SDS011;1536;51.098;6.414;2024-03-08T08:19:04;28.95;;;20.23;;
3052;SDS011;1536;51.098;6.414;2024-03-08T08:21:33;29.83;;;20.08;;
3052;SDS011;1536;51.098;6.414;2024-03-08T08:24:01;26.80;;;19.88;;
3052;SDS011;1536;51.098;6.414;2024-03-08T08:26:28;28.38;;;19.48;;
3052;SDS011;1536;51.098;6.414;2024-03-08T08:28:55;26.15;;;18.92;;
3052;SDS011;1536;51.098;6.414;2024-03-08T08:31:22;36.75;;;20.23;;
3052;SDS011;1536;51.098;6.414;2024-03-08T08:33:49;26.27;;;19.27;;
3052;SDS011;1536;51.098;6.414;2024-03-08T08:36:20;33.33;;;21.45;;
3052;SDS011;1536;51.098;6.414;2024-03-08T08:38:47;25.20;;;19.33;;
3052;SDS011;1536;51.098;6.414;2024-03-08T08:41:14;27.65;;;20.35;;
3052;SDS011;1536;51.098;6.414;2024-03-08T08:43:42;30.40;;;19.70;;
3052;SDS011;1536;51.098;6.414;2024-03-08T08:46:09;29.95;;;19.00;;
3052;SDS011;1536;51.098;6.414;2024-03-08T08:48:38;27.88;;;19.92;;
3052;SDS011;1536;51.098;6.414;2024-03-08T08:51:06;27.17;;;18.90;;
3052;SDS011;1536;51.098;6.414;2024-03-08T08:53:38;24.90;;;18.08;;
3052;SDS011;1536;51.098;6.414;2024-03-08T08:56:07;23.65;;;18.60;;
3052;SDS011;1536;51.098;6.414;2024-03-08T08:58:37;31.77;;;18.85;;
3052;SDS011;1536;51.098;6.414;2024-03-08T09:01:05;30.88;;;18.52;;
3052;SDS011;1536;51.098;6.414;2024-03-08T09:03:32;29.60;;;18.90;;
3052;SDS011;1536;51.098;6.414;2024-03-08T09:05:59;30.10;;;18.48;;
3052;SDS011;1536;51.098;6.414;2024-03-08T09:08:27;35.78;;;20.10;;
3052;SDS011;1536;51.098;6.414;2024-03-08T09:10:56;32.25;;;19.75;;
3052;SDS011;1536;51.098;6.414;2024-03-08T09:13:24;40.95;;;18.50;;
3052;SDS011;1536;51.098;6.414;2024-03-08T09:15:51;33.30;;;18.67;;
3052;SDS011;1536;51.098;6.414;2024-03-08T09:18:18;44.22;;;18.58;;
3052;SDS011;1536;51.098;6.414;2024-03-08T09:20:45;26.40;;;17.20;;
3052;SDS011;1536;51.098;6.414;2024-03-08T09:23:12;26.35;;;17.40;;
3052;SDS011;1536;51.098;6.414;2024-03-08T09:25:40;32.00;;;21.02;;
3052;SDS011;1536;51.098;6.414;2024-03-08T09:28:08;30.50;;;17.92;;
3052;SDS011;1536;51.098;6.414;2024-03-08T09:30:36;29.08;;;19.23;;
3052;SDS011;1536;51.098;6.414;2024-03-08T09:33:03;25.45;;;18.85;;
3052;SDS011;1536;51.098;6.414;2024-03-08T09:35:30;30.42;;;18.17;;
3052;SDS011;1536;51.098;6.414;2024-03-08T09:37:57;27.92;;;18.40;;
3052;SDS011;1536;51.098;6.414;2024-03-08T09:40:24;26.45;;;17.15;;
3052;SDS011;1536;51.098;6.414;2024-03-08T09:42:52;23.63;;;16.17;;
3052;SDS011;1536;51.098;6.414;2024-03-08T09:45:21;55.75;;;19.02;;
3052;SDS011;1536;51.098;6.414;2024-03-08T09:47:50;35.92;;;18.38;;
3052;SDS011;1536;51.098;6.414;2024-03-08T09:50:18;43.40;;;18.45;;
3052;SDS011;1536;51.098;6.414;2024-03-08T09:52:46;37.80;;;18.95;;
3052;SDS011;1536;51.098;6.414;2024-03-08T09:55:15;30.05;;;19.33;;
3052;SDS011;1536;51.098;6.414;2024-03-08T09:57:47;25.90;;;18.75;;
3052;SDS011;1536;51.098;6.414;2024-03-08T10:00:42;26.95;;;16.23;;
3052;SDS011;1536;51.098;6.414;2024-03-08T10:03:10;25.63;;;17.23;;
3052;SDS011;1536;51.098;6.414;2024-03-08T10:05:39;26.40;;;15.93;;
3052;SDS011;1536;51.098;6.414;2024-03-08T10:08:08;20.33;;;16.48;;
3052;SDS011;1536;51.098;6.414;2024-03-08T10:10:36;23.42;;;16.90;;
3052;SDS011;1536;51.098;6.414;2024-03-08T10:13:04;28.50;;;16.42;;
3052;SDS011;1536;51.098;6.414;2024-03-08T10:15:32;29.40;;;18.25;;
3052;SDS011;1536;51.098;6.414;2024-03-08T10:18:00;29.17;;;16.75;;
3052;SDS011;1536;51.098;6.414;2024-03-08T10:20:28;23.15;;;16.05;;
3052;SDS011;1536;51.098;6.414;2024-03-08T10:22:58;24.83;;;16.52;;
3052;SDS011;1536;51.098;6.414;2024-03-08T10:25:25;22.27;;;16.85;;
3052;SDS011;1536;51.098;6.414;2024-03-08T10:27:52;30.88;;;16.73;;
3052;SDS011;1536;51.098;6.414;2024-03-08T10:30:19;23.55;;;17.52;;
3052;SDS011;1536;51.098;6.414;2024-03-08T10:32:48;26.27;;;16.15;;
3052;SDS011;1536;51.098;6.414;2024-03-08T10:35:16;26.98;;;15.93;;
3052;SDS011;1536;51.098;6.414;2024-03-08T10:37:44;18.90;;;14.88;;
3052;SDS011;1536;51.098;6.414;2024-03-08T10:40:14;30.02;;;16.40;;
3052;SDS011;1536;51.098;6.414;2024-03-08T10:42:47;31.48;;;16.90;;
3052;SDS011;1536;51.098;6.414;2024-03-08T10:45:23;30.85;;;17.95;;
3052;SDS011;1536;51.098;6.414;2024-03-08T10:48:00;20.55;;;15.93;;
3052;SDS011;1536;51.098;6.414;2024-03-08T10:50:45;28.50;;;15.50;;
3052;SDS011;1536;51.098;6.414;2024-03-08T10:53:15;23.30;;;14.65;;
3052;SDS011;1536;51.098;6.414;2024-03-08T10:55:46;27.27;;;15.23;;
3052;SDS011;1536;51.098;6.414;2024-03-08T10:58:14;29.75;;;14.43;;
3052;SDS011;1536;51.098;6.414;2024-03-08T11:00:42;21.08;;;14.32;;
3052;SDS011;1536;51.098;6.414;2024-03-08T11:03:11;25.77;;;14.38;;
3052;SDS011;1536;51.098;6.414;2024-03-08T11:06:14;19.58;;;14.25;;
3052;SDS011;1536;51.098;6.414;2024-03-08T11:08:43;19.50;;;13.93;;
3052;SDS011;1536;51.098;6.414;2024-03-08T11:13:56;36.25;;;13.77;;
3052;SDS011;1536;51.098;6.414;2024-03-08T11:16:36;16.80;;;13.50;;
3052;SDS011;1536;51.098;6.414;2024-03-08T11:19:23;44.35;;;15.45;;
3052;SDS011;1536;51.098;6.414;2024-03-08T11:24:39;28.45;;;14.45;;
3052;SDS011;1536;51.098;6.414;2024-03-08T11:27:06;65.40;;;16.55;;
3052;SDS011;1536;51.098;6.414;2024-03-08T11:29:37;55.72;;;15.00;;
3052;SDS011;1536;51.098;6.414;2024-03-08T11:32:07;39.53;;;13.73;;
3052;SDS011;1536;51.098;6.414;2024-03-08T11:34:35;51.35;;;15.05;;
3052;SDS011;1536;51.098;6.414;2024-03-08T11:37:05;74.13;;;14.95;;
3052;SDS011;1536;51.098;6.414;2024-03-08T11:39:37;51.23;;;12.47;;
3052;SDS011;1536;51.098;6.414;2024-03-08T11:42:05;66.28;;;15.15;;
3052;SDS011;1536;51.098;6.414;2024-03-08T11:44:32;64.83;;;14.00;;
3052;SDS011;1536;51.098;6.414;2024-03-08T11:46:59;47.80;;;13.13;;
3052;SDS011;1536;51.098;6.414;2024-03-08T11:49:25;46.75;;;13.18;;
3052;SDS011;1536;51.098;6.414;2024-03-08T11:51:52;62.73;;;14.20;;
3052;SDS011;1536;51.098;6.414;2024-03-08T11:54:22;51.75;;;14.15;;
3052;SDS011;1536;51.098;6.414;2024-03-08T11:56:51;60.15;;;13.60;;
3052;SDS011;1536;51.098;6.414;2024-03-08T11:59:20;58.75;;;13.75;;
3052;SDS011;1536;51.098;6.414;2024-03-08T12:01:57;51.27;;;12.47;;
3052;SDS011;1536;51.098;6.414;2024-03-08T12:04:26;34.10;;;12.77;;
3052;SDS011;1536;51.098;6.414;2024-03-08T12:06:53;59.42;;;16.23;;
3052;SDS011;1536;51.098;6.414;2024-03-08T12:09:22;40.23;;;13.40;;
3052;SDS011;1536;51.098;6.414;2024-03-08T12:11:49;77.38;;;15.55;;
3052;SDS011;1536;51.098;6.414;2024-03-08T12:14:16;44.40;;;13.23;;
3052;SDS011;1536;51.098;6.414;2024-03-08T12:16:43;32.42;;;12.00;;
3052;SDS011;1536;51.098;6.414;2024-03-08T12:19:10;34.78;;;11.45;;
3052;SDS011;1536;51.098;6.414;2024-03-08T12:21:38;32.95;;;13.13;;
3052;SDS011;1536;51.098;6.414;2024-03-08T12:24:15;25.77;;;10.90;;
3052;SDS011;1536;51.098;6.414;2024-03-08T12:26:48;44.87;;;12.27;;
3052;SDS011;1536;51.098;6.414;2024-03-08T12:29:16;21.23;;;11.70;;
3052;SDS011;1536;51.098;6.414;2024-03-08T12:31:45;29.50;;;11.97;;
3052;SDS011;1536;51.098;6.414;2024-03-08T12:34:12;39.80;;;11.73;;
3052;SDS011;1536;51.098;6.414;2024-03-08T12:36:44;40.23;;;14.43;;
3052;SDS011;1536;51.098;6.414;2024-03-08T12:39:12;35.87;;;13.10;;
3052;SDS011;1536;51.098;6.414;2024-03-08T12:41:41;27.13;;;12.93;;
3052;SDS011;1536;51.098;6.414;2024-03-08T12:44:09;67.90;;;13.50;;
3052;SDS011;1536;51.098;6.414;2024-03-08T12:46:37;44.00;;;13.33;;
3052;SDS011;1536;51.098;6.414;2024-03-08T12:49:09;19.47;;;11.80;;
3052;SDS011;1536;51.098;6.414;2024-03-08T12:51:37;28.47;;;12.67;;
3052;SDS011;1536;51.098;6.414;2024-03-08T12:54:04;34.77;;;13.30;;
3052;SDS011;1536;51.098;6.414;2024-03-08T12:56:33;55.93;;;13.80;;
3052;SDS011;1536;51.098;6.414;2024-03-08T12:59:02;52.27;;;14.47;;
3052;SDS011;1536;51.098;6.414;2024-03-08T13:01:50;29.93;;;12.43;;
3052;SDS011;1536;51.098;6.414;2024-03-08T13:04:18;26.10;;;13.13;;
3052;SDS011;1536;51.098;6.414;2024-03-08T13:06:46;59.37;;;12.60;;
3052;SDS011;1536;51.098;6.414;2024-03-08T13:09:15;42.90;;;13.50;;
3052;SDS011;1536;51.098;6.414;2024-03-08T13:11:44;41.72;;;13.73;;
3052;SDS011;1536;51.098;6.414;2024-03-08T13:14:11;48.63;;;13.30;;
3052;SDS011;1536;51.098;6.414;2024-03-08T13:16:38;31.20;;;13.30;;
3052;SDS011;1536;51.098;6.414;2024-03-08T13:19:06;35.40;;;13.13;;
3052;SDS011;1536;51.098;6.414;2024-03-08T13:21:34;29.97;;;13.30;;
3052;SDS011;1536;51.098;6.414;2024-03-08T13:24:01;35.73;;;11.77;;
3052;SDS011;1536;51.098;6.414;2024-03-08T13:26:28;26.67;;;12.40;;
3052;SDS011;1536;51.098;6.414;2024-03-08T13:28:57;27.93;;;13.10;;
3052;SDS011;1536;51.098;6.414;2024-03-08T13:31:24;22.87;;;12.53;;
3052;SDS011;1536;51.098;6.414;2024-03-08T13:33:51;26.97;;;12.57;;
3052;SDS011;1536;51.098;6.414;2024-03-08T13:36:24;18.27;;;12.20;;
3052;SDS011;1536;51.098;6.414;2024-03-08T13:38:54;17.00;;;11.17;;
3052;SDS011;1536;51.098;6.414;2024-03-08T13:41:24;29.43;;;13.53;;
3052;SDS011;1536;51.098;6.414;2024-03-08T13:43:51;22.87;;;11.60;;
3052;SDS011;1536;51.098;6.414;2024-03-08T13:46:18;20.70;;;12.73;;
3052;SDS011;1536;51.098;6.414;2024-03-08T13:48:45;36.30;;;13.80;;
3052;SDS011;1536;51.098;6.414;2024-03-08T13:51:13;15.67;;;10.73;;
3052;SDS011;1536;51.098;6.414;2024-03-08T13:53:43;19.40;;;13.87;;
3052;SDS011;1536;51.098;6.414;2024-03-08T13:56:10;21.50;;;12.17;;
3052;SDS011;1536;51.098;6.414;2024-03-08T13:58:40;19.20;;;10.97;;
3052;SDS011;1536;51.098;6.414;2024-03-08T14:01:09;39.20;;;13.73;;
3052;SDS011;1536;51.098;6.414;2024-03-08T14:03:36;26.70;;;13.10;;
3052;SDS011;1536;51.098;6.414;2024-03-08T14:06:04;22.53;;;13.10;;
3052;SDS011;1536;51.098;6.414;2024-03-08T14:08:32;20.10;;;12.47;;
3052;SDS011;1536;51.098;6.414;2024-03-08T14:11:00;22.30;;;11.67;;
3052;SDS011;1536;51.098;6.414;2024-03-08T14:13:35;21.57;;;13.10;;
3052;SDS011;1536;51.098;6.414;2024-03-08T14:16:06;14.70;;;11.53;;
3052;SDS011;1536;51.098;6.414;2024-03-08T14:18:34;15.60;;;11.97;;
3052;SDS011;1536;51.098;6.414;2024-03-08T14:21:02;19.63;;;11.10;;
3052;SDS011;1536;51.098;6.414;2024-03-08T14:23:29;18.80;;;11.33;;
3052;SDS011;1536;51.098;6.414;2024-03-08T14:25:57;21.30;;;11.97;;
3052;SDS011;1536;51.098;6.414;2024-03-08T14:28:26;14.90;;;11.30;;
3052;SDS011;1536;51.098;6.414;2024-03-08T14:30:53;13.57;;;10.00;;
3052;SDS011;1536;51.098;6.414;2024-03-08T14:33:20;25.33;;;11.43;;
3052;SDS011;1536;51.098;6.414;2024-03-08T14:35:47;21.03;;;10.73;;
3052;SDS011;1536;51.098;6.414;2024-03-08T14:38:14;25.90;;;11.00;;
3052;SDS011;1536;51.098;6.414;2024-03-08T14:40:43;22.27;;;11.07;;
3052;SDS011;1536;51.098;6.414;2024-03-08T14:43:12;24.93;;;13.07;;
3052;SDS011;1536;51.098;6.414;2024-03-08T14:45:41;15.23;;;9.87;;
3052;SDS011;1536;51.098;6.414;2024-03-08T14:48:08;28.93;;;10.70;;
3052;SDS011;1536;51.098;6.414;2024-03-08T14:50:36;22.87;;;11.27;;
3052;SDS011;1536;51.098;6.414;2024-03-08T14:53:04;18.97;;;10.53;;
3052;SDS011;1536;51.098;6.414;2024-03-08T14:55:31;19.37;;;10.70;;
3052;SDS011;1536;51.098;6.414;2024-03-08T14:58:00;15.10;;;9.50;;
3052;SDS011;1536;51.098;6.414;2024-03-08T15:00:26;13.53;;;9.87;;